sensor_id;sensor_type;location;lat;lon;timestamp;pressure;altitude;pressure_sealevel;temperature;humidity
28927;BME280;16038;47.692;9.400;2023-11-21T00:00:24;96203.06;;;7.68;100.00
28927;BME280;16038;47.692;9.400;2023-11-21T00:02:50;96204.56;;;7.65;100.00
28927;BME280;16038;47.692;9.400;2023-11-21T00:05:16;96198.47;;;7.52;100.00
28927;BME280;16038;47.692;9.400;2023-11-21T00:07:42;96196.78;;;7.44;100.00
28927;BME280;16038;47.692;9.400;2023-11-21T00:10:09;96198.84;;;7.31;100.00
28927;BME280;16038;47.692;9.400;2023-11-21T00:12:35;96191.38;;;7.28;100.00
28927;BME280;16038;47.692;9.400;2023-11-21T00:15:01;96176.09;;;7.23;100.00
28927;BME280;16038;47.692;9.400;2023-11-21T00:17:27;96178.97;;;7.31;100.00
28927;BME280;16038;47.692;9.400;2023-11-21T00:19:53;96171.22;;;7.33;100.00
28927;BME280;16038;47.692;9.400;2023-11-21T00:22:19;96164.78;;;7.41;100.00
28927;BME280;16038;47.692;9.400;2023-11-21T00:24:45;96166.78;;;7.24;100.00
28927;BME280;16038;47.692;9.400;2023-11-21T00:27:10;96163.06;;;7.13;100.00
28927;BME280;16038;47.692;9.400;2023-11-21T00:29:36;96169.06;;;7.03;100.00
28927;BME280;16038;47.692;9.400;2023-11-21T00:32:01;96170.53;;;7.00;100.00
28927;BME280;16038;47.692;9.400;2023-11-21T00:34:27;96175.28;;;7.03;100.00
28927;BME280;16038;47.692;9.400;2023-11-21T00:36:52;96169.25;;;6.94;100.00
28927;BME280;16038;47.692;9.400;2023-11-21T00:39:18;96169.97;;;6.91;100.00
28927;BME280;16038;47.692;9.400;2023-11-21T00:41:43;96169.59;;;6.93;100.00
28927;BME280;16038;47.692;9.400;2023-11-21T00:44:11;96173.34;;;6.84;100.00
28927;BME280;16038;47.692;9.400;2023-11-21T00:46:36;96165.78;;;6.78;100.00
28927;BME280;16038;47.692;9.400;2023-11-21T00:49:02;96166.06;;;6.73;100.00
28927;BME280;16038;47.692;9.400;2023-11-21T00:51:30;96158.84;;;6.80;100.00
28927;BME280;16038;47.692;9.400;2023-11-21T00:53:55;96155.34;;;6.80;100.00
28927;BME280;16038;47.692;9.400;2023-11-21T00:56:21;96158.13;;;6.83;100.00
28927;BME280;16038;47.692;9.400;2023-11-21T00:58:47;96164.28;;;6.80;100.00
28927;BME280;16038;47.692;9.400;2023-11-21T01:01:15;96163.84;;;6.78;100.00
28927;BME280;16038;47.692;9.400;2023-11-21T01:03:41;96165.09;;;6.81;100.00
28927;BME280;16038;47.692;9.400;2023-11-21T01:06:07;96150.75;;;6.84;100.00
28927;BME280;16038;47.692;9.400;2023-11-21T01:08:32;96144.59;;;6.87;100.00
28927;BME280;16038;47.692;9.400;2023-11-21T01:10:58;96154.03;;;6.74;100.00
28927;BME280;16038;47.692;9.400;2023-11-21T01:13:23;96149.03;;;6.76;100.00
28927;BME280;16038;47.692;9.400;2023-11-21T01:15:49;96159.72;;;6.84;100.00
28927;BME280;16038;47.692;9.400;2023-11-21T01:18:14;96156.78;;;6.93;100.00
28927;BME280;16038;47.692;9.400;2023-11-21T01:20:39;96152.50;;;6.92;100.00
28927;BME280;16038;47.692;9.400;2023-11-21T01:23:05;96153.72;;;6.95;100.00
28927;BME280;16038;47.692;9.400;2023-11-21T01:25:30;96157.31;;;6.99;100.00
28927;BME280;16038;47.692;9.400;2023-11-21T01:27:56;96158.78;;;6.96;100.00
28927;BME280;16038;47.692;9.400;2023-11-21T01:30:21;96163.13;;;6.97;100.00
28927;BME280;16038;47.692;9.400;2023-11-21T01:32:47;96161.16;;;6.98;100.00
28927;BME280;16038;47.692;9.400;2023-11-21T01:35:12;96164.59;;;6.95;100.00
28927;BME280;16038;47.692;9.400;2023-11-21T01:37:38;96154.94;;;6.97;100.00
28927;BME280;16038;47.692;9.400;2023-11-21T01:40:04;96155.28;;;6.96;100.00
28927;BME280;16038;47.692;9.400;2023-11-21T01:42:34;96164.41;;;7.03;100.00
28927;BME280;16038;47.692;9.400;2023-11-21T01:45:00;96160.81;;;6.99;100.00
28927;BME280;16038;47.692;9.400;2023-11-21T01:47:30;96154.50;;;6.95;100.00
28927;BME280;16038;47.692;9.400;2023-11-21T01:49:55;96155.38;;;6.99;100.00
28927;BME280;16038;47.692;9.400;2023-11-21T01:52:20;96161.09;;;6.94;100.00
28927;BME280;16038;47.692;9.400;2023-11-21T01:54:46;96153.13;;;6.85;100.00
28927;BME280;16038;47.692;9.400;2023-11-21T01:57:11;96151.75;;;6.76;100.00
28927;BME280;16038;47.692;9.400;2023-11-21T01:59:37;96147.25;;;6.83;100.00
28927;BME280;16038;47.692;9.400;2023-11-21T02:02:04;96141.38;;;6.81;100.00
28927;BME280;16038;47.692;9.400;2023-11-21T02:04:33;96144.25;;;6.88;100.00
28927;BME280;16038;47.692;9.400;2023-11-21T02:07:00;96148.47;;;6.86;100.00
28927;BME280;16038;47.692;9.400;2023-11-21T02:09:26;96146.53;;;6.86;100.00
28927;BME280;16038;47.692;9.400;2023-11-21T02:11:53;96137.94;;;6.84;100.00
28927;BME280;16038;47.692;9.400;2023-11-21T02:14:19;96140.94;;;6.79;100.00
28927;BME280;16038;47.692;9.400;2023-11-21T02:16:48;96143.31;;;6.81;100.00
28927;BME280;16038;47.692;9.400;2023-11-21T02:19:18;96141.31;;;6.62;100.00
28927;BME280;16038;47.692;9.400;2023-11-21T02:21:45;96142.75;;;6.56;100.00
28927;BME280;16038;47.692;9.400;2023-11-21T02:24:11;96138.00;;;6.53;100.00
28927;BME280;16038;47.692;9.400;2023-11-21T02:26:36;96133.88;;;6.59;100.00
28927;BME280;16038;47.692;9.400;2023-11-21T02:29:01;96141.50;;;6.69;100.00
28927;BME280;16038;47.692;9.400;2023-11-21T02:31:30;96143.94;;;6.74;100.00
28927;BME280;16038;47.692;9.400;2023-11-21T02:33:55;96137.06;;;6.80;100.00
28927;BME280;16038;47.692;9.400;2023-11-21T02:36:21;96132.78;;;6.79;100.00
28927;BME280;16038;47.692;9.400;2023-11-21T02:38:47;96136.56;;;6.75;100.00
28927;BME280;16038;47.692;9.400;2023-11-21T02:41:12;96124.47;;;6.72;100.00
28927;BME280;16038;47.692;9.400;2023-11-21T02:43:38;96137.94;;;6.84;100.00
28927;BME280;16038;47.692;9.400;2023-11-21T02:46:04;96131.69;;;6.84;100.00
28927;BME280;16038;47.692;9.400;2023-11-21T02:48:29;96131.69;;;6.84;100.00
28927;BME280;16038;47.692;9.400;2023-11-21T02:50:56;96131.63;;;6.80;100.00
28927;BME280;16038;47.692;9.400;2023-11-21T02:53:21;96142.16;;;6.82;100.00
28927;BME280;16038;47.692;9.400;2023-11-21T02:55:47;96140.06;;;6.75;100.00
28927;BME280;16038;47.692;9.400;2023-11-21T02:58:12;96142.78;;;6.75;100.00
28927;BME280;16038;47.692;9.400;2023-11-21T03:00:37;96140.06;;;6.75;100.00
28927;BME280;16038;47.692;9.400;2023-11-21T03:03:05;96144.78;;;6.78;100.00
28927;BME280;16038;47.692;9.400;2023-11-21T03:05:30;96138.22;;;6.79;100.00
28927;BME280;16038;47.692;9.400;2023-11-21T03:07:56;96139.28;;;6.75;100.00
28927;BME280;16038;47.692;9.400;2023-11-21T03:10:21;96145.88;;;6.74;100.00
28927;BME280;16038;47.692;9.400;2023-11-21T03:12:47;96143.00;;;6.66;100.00
28927;BME280;16038;47.692;9.400;2023-11-21T03:15:12;96145.56;;;6.79;100.00
28927;BME280;16038;47.692;9.400;2023-11-21T03:17:38;96144.56;;;6.67;100.00
28927;BME280;16038;47.692;9.400;2023-11-21T03:20:04;96143.97;;;6.58;100.00
28927;BME280;16038;47.692;9.400;2023-11-21T03:22:30;96142.53;;;6.64;100.00
28927;BME280;16038;47.692;9.400;2023-11-21T03:24:55;96147.03;;;6.57;100.00
28927;BME280;16038;47.692;9.400;2023-11-21T03:27:20;96144.06;;;6.62;100.00
28927;BME280;16038;47.692;9.400;2023-11-21T03:29:46;96153.34;;;6.61;100.00
28927;BME280;16038;47.692;9.400;2023-11-21T03:32:12;96150.19;;;6.59;100.00
28927;BME280;16038;47.692;9.400;2023-11-21T03:34:56;96147.44;;;6.39;100.00
28927;BME280;16038;47.692;9.400;2023-11-21T03:37:23;96144.06;;;6.46;100.00
28927;BME280;16038;47.692;9.400;2023-11-21T03:39:48;96146.09;;;6.49;100.00
28927;BME280;16038;47.692;9.400;2023-11-21T03:42:14;96144.78;;;6.43;100.00
28927;BME280;16038;47.692;9.400;2023-11-21T03:44:39;96147.22;;;6.48;100.00
28927;BME280;16038;47.692;9.400;2023-11-21T03:47:05;96146.09;;;6.49;100.00
28927;BME280;16038;47.692;9.400;2023-11-21T03:49:30;96150.59;;;6.41;100.00
28927;BME280;16038;47.692;9.400;2023-11-21T03:51:56;96146.88;;;6.34;100.00
28927;BME280;16038;47.692;9.400;2023-11-21T03:54:21;96146.72;;;6.42;100.00
28927;BME280;16038;47.692;9.400;2023-11-21T03:56:47;96149.19;;;6.31;100.00
28927;BME280;16038;47.692;9.400;2023-11-21T03:59:12;96142.00;;;6.39;100.00
28927;BME280;16038;47.692;9.400;2023-11-21T04:01:37;96145.16;;;6.41;100.00
28927;BME280;16038;47.692;9.400;2023-11-21T04:04:04;96151.72;;;6.40;100.00
28927;BME280;16038;47.692;9.400;2023-11-21T04:06:29;96154.44;;;6.24;100.00
28927;BME280;16038;47.692;9.400;2023-11-21T04:08:55;96147.78;;;6.22;100.00
28927;BME280;16038;47.692;9.400;2023-11-21T04:11:20;96153.75;;;6.27;100.00
28927;BME280;16038;47.692;9.400;2023-11-21T04:13:46;96152.63;;;6.28;100.00
28927;BME280;16038;47.692;9.400;2023-11-21T04:16:12;96153.84;;;6.15;100.00
28927;BME280;16038;47.692;9.400;2023-11-21T04:18:38;96157.34;;;6.00;100.00
28927;BME280;16038;47.692;9.400;2023-11-21T04:21:05;96153.25;;;5.93;100.00
28927;BME280;16038;47.692;9.400;2023-11-21T04:23:31;96156.88;;;5.98;100.00
28927;BME280;16038;47.692;9.400;2023-11-21T04:25:57;96152.09;;;6.07;100.00
28927;BME280;16038;47.692;9.400;2023-11-21T04:28:25;96162.16;;;6.06;100.00
28927;BME280;16038;47.692;9.400;2023-11-21T04:30:51;96163.13;;;5.98;100.00
28927;BME280;16038;47.692;9.400;2023-11-21T04:33:17;96159.03;;;5.92;100.00
28927;BME280;16038;47.692;9.400;2023-11-21T04:35:42;96156.09;;;5.97;100.00
28927;BME280;16038;47.692;9.400;2023-11-21T04:38:08;96144.97;;;6.02;100.00
28927;BME280;16038;47.692;9.400;2023-11-21T04:40:33;96147.69;;;6.02;100.00
28927;BME280;16038;47.692;9.400;2023-11-21T04:42:58;96143.81;;;5.87;100.00
28927;BME280;16038;47.692;9.400;2023-11-21T04:45:24;96148.34;;;5.83;100.00
28927;BME280;16038;47.692;9.400;2023-11-21T04:47:50;96153.59;;;5.76;100.00
28927;BME280;16038;47.692;9.400;2023-11-21T04:50:15;96147.81;;;5.78;100.00
28927;BME280;16038;47.692;9.400;2023-11-21T04:52:40;96147.81;;;5.78;100.00
28927;BME280;16038;47.692;9.400;2023-11-21T04:55:06;96143.56;;;5.92;100.00
28927;BME280;16038;47.692;9.400;2023-11-21T04:57:35;96148.66;;;6.10;100.00
28927;BME280;16038;47.692;9.400;2023-11-21T05:00:01;96150.41;;;6.18;100.00
28927;BME280;16038;47.692;9.400;2023-11-21T05:02:26;96143.66;;;6.12;100.00
28927;BME280;16038;47.692;9.400;2023-11-21T05:04:51;96156.91;;;6.13;100.00
28927;BME280;16038;47.692;9.400;2023-11-21T05:07:18;96150.50;;;6.22;100.00
28927;BME280;16038;47.692;9.400;2023-11-21T05:09:43;96154.63;;;6.31;100.00
28927;BME280;16038;47.692;9.400;2023-11-21T05:12:13;96154.69;;;6.19;100.00
28927;BME280;16038;47.692;9.400;2023-11-21T05:14:39;96158.41;;;6.11;100.00
28927;BME280;16038;47.692;9.400;2023-11-21T05:17:05;96157.78;;;6.18;100.00
28927;BME280;16038;47.692;9.400;2023-11-21T05:19:30;96147.88;;;6.09;100.00
28927;BME280;16038;47.692;9.400;2023-11-21T05:21:58;96149.97;;;6.00;100.00
28927;BME280;16038;47.692;9.400;2023-11-21T05:24:24;96150.84;;;6.04;100.00
28927;BME280;16038;47.692;9.400;2023-11-21T05:26:49;96150.94;;;6.24;100.00
28927;BME280;16038;47.692;9.400;2023-11-21T05:29:14;96155.03;;;6.34;100.00
28927;BME280;16038;47.692;9.400;2023-11-21T05:31:40;96160.22;;;6.55;100.00
28927;BME280;16038;47.692;9.400;2023-11-21T05:34:05;96162.31;;;6.61;100.00
28927;BME280;16038;47.692;9.400;2023-11-21T05:36:31;96169.78;;;6.48;100.00
28927;BME280;16038;47.692;9.400;2023-11-21T05:38:56;96168.38;;;6.55;100.00
28927;BME280;16038;47.692;9.400;2023-11-21T05:41:22;96164.31;;;6.64;100.00
28927;BME280;16038;47.692;9.400;2023-11-21T05:43:48;96170.13;;;6.63;100.00
28927;BME280;16038;47.692;9.400;2023-11-21T05:46:13;96166.94;;;6.61;100.00
28927;BME280;16038;47.692;9.400;2023-11-21T05:48:39;96171.97;;;6.59;100.00
28927;BME280;16038;47.692;9.400;2023-11-21T05:51:06;96177.97;;;6.48;100.00
28927;BME280;16038;47.692;9.400;2023-11-21T05:53:31;96174.91;;;6.34;100.00
28927;BME280;16038;47.692;9.400;2023-11-21T05:55:56;96176.72;;;6.46;100.00
28927;BME280;16038;47.692;9.400;2023-11-21T05:58:22;96175.31;;;6.52;100.00
28927;BME280;16038;47.692;9.400;2023-11-21T06:00:48;96181.88;;;6.51;100.00
28927;BME280;16038;47.692;9.400;2023-11-21T06:03:13;96182.75;;;6.55;100.00
28927;BME280;16038;47.692;9.400;2023-11-21T06:05:38;96179.69;;;6.57;100.00
28927;BME280;16038;47.692;9.400;2023-11-21T06:08:04;96192.00;;;6.50;100.00
28927;BME280;16038;47.692;9.400;2023-11-21T06:10:29;96186.91;;;6.49;100.00
28927;BME280;16038;47.692;9.400;2023-11-21T06:12:55;96188.75;;;6.45;100.00
28927;BME280;16038;47.692;9.400;2023-11-21T06:15:21;96204.63;;;6.43;100.00
28927;BME280;16038;47.692;9.400;2023-11-21T06:17:48;96197.16;;;6.56;100.00
28927;BME280;16038;47.692;9.400;2023-11-21T06:20:18;96197.69;;;6.45;100.00
28927;BME280;16038;47.692;9.400;2023-11-21T06:22:49;96197.59;;;6.42;100.00
28927;BME280;16038;47.692;9.400;2023-11-21T06:25:15;96196.81;;;6.41;100.00
28927;BME280;16038;47.692;9.400;2023-11-21T06:27:45;96203.91;;;6.46;100.00
28927;BME280;16038;47.692;9.400;2023-11-21T06:30:13;96201.53;;;6.44;100.00
28927;BME280;16038;47.692;9.400;2023-11-21T06:32:39;96207.06;;;6.48;100.00
28927;BME280;16038;47.692;9.400;2023-11-21T06:35:06;96205.94;;;6.49;100.00
28927;BME280;16038;47.692;9.400;2023-11-21T06:37:32;96206.47;;;6.55;100.00
28927;BME280;16038;47.692;9.400;2023-11-21T06:39:58;96210.06;;;6.59;100.00
28927;BME280;16038;47.692;9.400;2023-11-21T06:42:25;96206.56;;;6.58;100.00
28927;BME280;16038;47.692;9.400;2023-11-21T06:44:50;96209.28;;;6.58;100.00
28927;BME280;16038;47.692;9.400;2023-11-21T06:47:20;96212.00;;;6.58;100.00
28927;BME280;16038;47.692;9.400;2023-11-21T06:49:46;96218.38;;;6.66;100.00
28927;BME280;16038;47.692;9.400;2023-11-21T06:52:13;96214.53;;;6.51;100.00
28927;BME280;16038;47.692;9.400;2023-11-21T06:54:39;96215.50;;;6.59;100.00
28927;BME280;16038;47.692;9.400;2023-11-21T06:57:05;96227.06;;;6.72;100.00
28927;BME280;16038;47.692;9.400;2023-11-21T06:59:30;96229.81;;;6.56;100.00
28927;BME280;16038;47.692;9.400;2023-11-21T07:01:55;96229.00;;;6.55;100.00
28927;BME280;16038;47.692;9.400;2023-11-21T07:04:21;96222.44;;;6.56;100.00
28927;BME280;16038;47.692;9.400;2023-11-21T07:06:46;96224.66;;;6.50;100.00
28927;BME280;16038;47.692;9.400;2023-11-21T07:09:12;96228.84;;;6.64;100.00
28927;BME280;16038;47.692;9.400;2023-11-21T07:11:38;96232.50;;;6.72;100.00
28927;BME280;16038;47.692;9.400;2023-11-21T07:14:04;96227.44;;;6.70;100.00
28927;BME280;16038;47.692;9.400;2023-11-21T07:16:35;96229.44;;;6.73;100.00
28927;BME280;16038;47.692;9.400;2023-11-21T07:19:06;96229.78;;;6.72;100.00
28927;BME280;16038;47.692;9.400;2023-11-21T07:21:35;96232.50;;;6.72;100.00
28927;BME280;16038;47.692;9.400;2023-11-21T07:24:01;96232.69;;;6.79;100.00
28927;BME280;16038;47.692;9.400;2023-11-21T07:26:27;96232.69;;;6.79;100.00
28927;BME280;16038;47.692;9.400;2023-11-21T07:28:53;96230.84;;;6.83;100.00
28927;BME280;16038;47.692;9.400;2023-11-21T07:31:19;96229.84;;;6.91;100.00
28927;BME280;16038;47.692;9.400;2023-11-21T07:33:47;96233.91;;;6.97;100.00
28927;BME280;16038;47.692;9.400;2023-11-21T07:36:14;96230.69;;;7.11;100.00
28927;BME280;16038;47.692;9.400;2023-11-21T07:38:39;96230.16;;;7.21;100.00
28927;BME280;16038;47.692;9.400;2023-11-21T07:41:05;96232.94;;;7.25;100.00
28927;BME280;16038;47.692;9.400;2023-11-21T07:43:33;96242.59;;;7.38;100.00
28927;BME280;16038;47.692;9.400;2023-11-21T07:46:03;96244.94;;;7.40;100.00
28927;BME280;16038;47.692;9.400;2023-11-21T07:48:33;96244.72;;;7.49;100.00
28927;BME280;16038;47.692;9.400;2023-11-21T07:51:00;96238.44;;;7.64;100.00
28927;BME280;16038;47.692;9.400;2023-11-21T07:53:25;96244.38;;;7.70;100.00
28927;BME280;16038;47.692;9.400;2023-11-21T07:55:54;96244.53;;;7.77;100.00
28927;BME280;16038;47.692;9.400;2023-11-21T07:58:20;96246.25;;;7.85;100.00
28927;BME280;16038;47.692;9.400;2023-11-21T08:00:45;96242.56;;;7.97;100.00
28927;BME280;16038;47.692;9.400;2023-11-21T08:03:13;96242.00;;;8.07;100.00
28927;BME280;16038;47.692;9.400;2023-11-21T08:05:38;96244.50;;;8.16;100.00
28927;BME280;16038;47.692;9.400;2023-11-21T08:08:04;96240.31;;;8.22;100.00
28927;BME280;16038;47.692;9.400;2023-11-21T08:10:30;96244.50;;;8.16;100.00
28927;BME280;16038;47.692;9.400;2023-11-21T08:12:55;96236.50;;;8.27;100.00
28927;BME280;16038;47.692;9.400;2023-11-21T08:15:21;96239.78;;;8.36;100.00
28927;BME280;16038;47.692;9.400;2023-11-21T08:17:49;96234.91;;;8.45;100.00
28927;BME280;16038;47.692;9.400;2023-11-21T08:20:15;96242.50;;;8.55;100.00
28927;BME280;16038;47.692;9.400;2023-11-21T08:22:42;96246.66;;;8.49;100.00
28927;BME280;16038;47.692;9.400;2023-11-21T08:25:07;96250.66;;;8.13;100.00
28927;BME280;16038;47.692;9.400;2023-11-21T08:27:36;96245.00;;;8.21;100.00
28927;BME280;16038;47.692;9.400;2023-11-21T08:30:03;96261.66;;;7.97;100.00
28927;BME280;16038;47.692;9.400;2023-11-21T08:32:29;96259.34;;;7.99;100.00
28927;BME280;16038;47.692;9.400;2023-11-21T08:35:00;96259.44;;;7.83;100.00
28927;BME280;16038;47.692;9.400;2023-11-21T08:37:26;96259.22;;;7.72;100.00
28927;BME280;16038;47.692;9.400;2023-11-21T08:39:58;96259.28;;;7.76;100.00
28927;BME280;16038;47.692;9.400;2023-11-21T08:42:24;96264.84;;;7.60;100.00
28927;BME280;16038;47.692;9.400;2023-11-21T08:44:50;96268.91;;;7.50;100.00
28927;BME280;16038;47.692;9.400;2023-11-21T08:47:16;96269.69;;;7.51;100.00
28927;BME280;16038;47.692;9.400;2023-11-21T08:49:41;96274.69;;;7.49;100.00
28927;BME280;16038;47.692;9.400;2023-11-21T08:52:07;96277.06;;;7.50;100.00
28927;BME280;16038;47.692;9.400;2023-11-21T08:54:33;96275.66;;;7.56;100.00
28927;BME280;16038;47.692;9.400;2023-11-21T08:56:59;96275.97;;;7.71;100.00
28927;BME280;16038;47.692;9.400;2023-11-21T08:59:25;96274.50;;;7.77;100.00
28927;BME280;16038;47.692;9.400;2023-11-21T09:01:51;96275.09;;;7.86;100.00
28927;BME280;16038;47.692;9.400;2023-11-21T09:04:17;96274.38;;;7.89;100.00
28927;BME280;16038;47.692;9.400;2023-11-21T09:06:42;96278.66;;;7.90;100.00
28927;BME280;16038;47.692;9.400;2023-11-21T09:09:08;96275.00;;;7.82;100.00
28927;BME280;16038;47.692;9.400;2023-11-21T09:11:36;96277.53;;;7.72;100.00
28927;BME280;16038;47.692;9.400;2023-11-21T09:14:02;96287.66;;;7.91;100.00
28927;BME280;16038;47.692;9.400;2023-11-21T09:16:29;96288.44;;;7.91;100.00
28927;BME280;16038;47.692;9.400;2023-11-21T09:18:55;96281.09;;;7.95;100.00
28927;BME280;16038;47.692;9.400;2023-11-21T09:21:23;96295.50;;;8.15;100.00
28927;BME280;16038;47.692;9.400;2023-11-21T09:23:49;96292.59;;;8.04;100.00
28927;BME280;16038;47.692;9.400;2023-11-21T09:26:15;96293.97;;;7.95;100.00
28927;BME280;16038;47.692;9.400;2023-11-21T09:28:43;96290.00;;;8.12;100.00
28927;BME280;16038;47.692;9.400;2023-11-21T09:31:11;96299.97;;;8.23;100.00
28927;BME280;16038;47.692;9.400;2023-11-21T09:33:37;96297.47;;;7.95;100.00
28927;BME280;16038;47.692;9.400;2023-11-21T09:36:04;96298.50;;;7.87;100.00
28927;BME280;16038;47.692;9.400;2023-11-21T09:38:30;96300.66;;;7.78;100.00
28927;BME280;16038;47.692;9.400;2023-11-21T09:40:56;96296.63;;;7.91;100.00
28927;BME280;16038;47.692;9.400;2023-11-21T09:43:27;96303.38;;;7.78;100.00
28927;BME280;16038;47.692;9.400;2023-11-21T09:46:00;96300.25;;;7.79;100.00
28927;BME280;16038;47.692;9.400;2023-11-21T09:48:29;96302.72;;;7.84;100.00
28927;BME280;16038;47.692;9.400;2023-11-21T09:50:56;96301.00;;;7.76;100.00
28927;BME280;16038;47.692;9.400;2023-11-21T09:53:22;96298.63;;;7.94;100.00
28927;BME280;16038;47.692;9.400;2023-11-21T09:55:51;96295.44;;;8.12;100.00
28927;BME280;16038;47.692;9.400;2023-11-21T09:58:18;96294.22;;;8.29;100.00
28927;BME280;16038;47.692;9.400;2023-11-21T10:00:48;96292.94;;;8.22;100.00
28927;BME280;16038;47.692;9.400;2023-11-21T10:03:15;96296.69;;;8.14;100.00
28927;BME280;16038;47.692;9.400;2023-11-21T10:05:43;96292.34;;;8.33;100.00
28927;BME280;16038;47.692;9.400;2023-11-21T10:08:11;96294.00;;;8.37;100.00
28927;BME280;16038;47.692;9.400;2023-11-21T10:10:43;96292.59;;;8.67;100.00
28927;BME280;16038;47.692;9.400;2023-11-21T10:13:13;96293.06;;;8.72;100.00
28927;BME280;16038;47.692;9.400;2023-11-21T10:15:42;96294.09;;;8.87;100.00
28927;BME280;16038;47.692;9.400;2023-11-21T10:18:14;96306.13;;;9.06;100.00
28927;BME280;16038;47.692;9.400;2023-11-21T10:20:40;96300.03;;;8.93;100.00
28927;BME280;16038;47.692;9.400;2023-11-21T10:23:06;96297.00;;;8.98;100.00
28927;BME280;16038;47.692;9.400;2023-11-21T10:25:36;96290.22;;;8.88;100.00
28927;BME280;16038;47.692;9.400;2023-11-21T10:28:03;96294.97;;;8.91;100.00
28927;BME280;16038;47.692;9.400;2023-11-21T10:30:34;96296.75;;;9.07;100.00
28927;BME280;16038;47.692;9.400;2023-11-21T10:33:02;96297.63;;;8.88;100.00
28927;BME280;16038;47.692;9.400;2023-11-21T10:35:47;96290.53;;;8.83;100.00
28927;BME280;16038;47.692;9.400;2023-11-21T10:38:16;96282.66;;;9.05;100.00
28927;BME280;16038;47.692;9.400;2023-11-21T10:40:42;96284.84;;;9.18;100.00
28927;BME280;16038;47.692;9.400;2023-11-21T10:43:13;96287.34;;;9.31;100.00
28927;BME280;16038;47.692;9.400;2023-11-21T10:45:40;96279.38;;;9.18;100.00
28927;BME280;16038;47.692;9.400;2023-11-21T10:48:06;96283.34;;;9.25;100.00
28927;BME280;16038;47.692;9.400;2023-11-21T10:50:41;96290.19;;;9.11;100.00
28927;BME280;16038;47.692;9.400;2023-11-21T10:53:09;96282.47;;;9.17;100.00
28927;BME280;16038;47.692;9.400;2023-11-21T10:55:37;96285.38;;;9.28;100.00
28927;BME280;16038;47.692;9.400;2023-11-21T10:58:04;96284.94;;;9.26;100.00
28927;BME280;16038;47.692;9.400;2023-11-21T11:00:31;96280.56;;;9.21;100.00
28927;BME280;16038;47.692;9.400;2023-11-21T11:02:57;96282.31;;;9.06;100.00
28927;BME280;16038;47.692;9.400;2023-11-21T11:05:30;96280.19;;;8.96;100.00
28927;BME280;16038;47.692;9.400;2023-11-21T11:08:08;96280.31;;;8.80;100.00
28927;BME280;16038;47.692;9.400;2023-11-21T11:10:37;96278.47;;;9.11;100.00
28927;BME280;16038;47.692;9.400;2023-11-21T11:13:03;96278.56;;;9.18;100.00
28927;BME280;16038;47.692;9.400;2023-11-21T11:15:29;96281.00;;;9.23;100.00
28927;BME280;16038;47.692;9.400;2023-11-21T11:17:55;96281.56;;;9.36;100.00
28927;BME280;16038;47.692;9.400;2023-11-21T11:20:29;96285.16;;;9.13;100.00
28927;BME280;16038;47.692;9.400;2023-11-21T11:31:45;96277.00;;;9.74;100.00
28927;BME280;16038;47.692;9.400;2023-11-21T11:34:33;96269.03;;;10.29;100.00
28927;BME280;16038;47.692;9.400;2023-11-21T11:37:02;96269.16;;;10.81;100.00
28927;BME280;16038;47.692;9.400;2023-11-21T11:41:56;96265.34;;;12.47;100.00
28927;BME280;16038;47.692;9.400;2023-11-21T11:47:28;96276.00;;;13.46;99.14
28927;BME280;16038;47.692;9.400;2023-11-21T11:50:11;96267.31;;;13.65;97.22
28927;BME280;16038;47.692;9.400;2023-11-21T11:52:52;96275.56;;;13.65;93.26
28927;BME280;16038;47.692;9.400;2023-11-21T11:55:20;96276.38;;;12.90;97.75
28927;BME280;16038;47.692;9.400;2023-11-21T11:57:51;96268.84;;;12.40;100.00
28927;BME280;16038;47.692;9.400;2023-11-21T12:02:52;96271.88;;;11.92;100.00
28927;BME280;16038;47.692;9.400;2023-11-21T12:05:19;96266.97;;;11.60;100.00
28927;BME280;16038;47.692;9.400;2023-11-21T12:07:55;96271.91;;;11.33;100.00
28927;BME280;16038;47.692;9.400;2023-11-21T12:10:32;96267.97;;;10.79;100.00
28927;BME280;16038;47.692;9.400;2023-11-21T12:13:05;96268.88;;;10.15;100.00
28927;BME280;16038;47.692;9.400;2023-11-21T12:15:33;96262.53;;;9.73;100.00
28927;BME280;16038;47.692;9.400;2023-11-21T12:18:00;96261.44;;;9.78;100.00
28927;BME280;16038;47.692;9.400;2023-11-21T12:20:27;96270.69;;;9.40;100.00
28927;BME280;16038;47.692;9.400;2023-11-21T12:22:58;96270.03;;;9.50;100.00
28927;BME280;16038;47.692;9.400;2023-11-21T12:25:30;96272.06;;;9.83;100.00
28927;BME280;16038;47.692;9.400;2023-11-21T12:28:01;96269.09;;;9.99;100.00
28927;BME280;16038;47.692;9.400;2023-11-21T12:30:32;96267.63;;;9.75;100.00
28927;BME280;16038;47.692;9.400;2023-11-21T12:33:01;96273.34;;;9.63;100.00
28927;BME280;16038;47.692;9.400;2023-11-21T12:35:35;96284.81;;;9.75;100.00
28927;BME280;16038;47.692;9.400;2023-11-21T12:38:02;96276.03;;;9.59;100.00
28927;BME280;16038;47.692;9.400;2023-11-21T12:40:28;96278.81;;;9.36;100.00
28927;BME280;16038;47.692;9.400;2023-11-21T12:42:55;96289.19;;;9.50;100.00
28927;BME280;16038;47.692;9.400;2023-11-21T12:45:25;96283.88;;;9.34;100.00
28927;BME280;16038;47.692;9.400;2023-11-21T12:47:56;96283.63;;;9.16;100.00
28927;BME280;16038;47.692;9.400;2023-11-21T12:50:26;96279.22;;;9.08;100.00
28927;BME280;16038;47.692;9.400;2023-11-21T12:52:54;96272.53;;;9.05;100.00
28927;BME280;16038;47.692;9.400;2023-11-21T12:55:23;96279.03;;;9.24;100.00
28927;BME280;16038;47.692;9.400;2023-11-21T12:57:53;96276.47;;;9.34;100.00
28927;BME280;16038;47.692;9.400;2023-11-21T13:00:31;96281.47;;;9.02;100.00
28927;BME280;16038;47.692;9.400;2023-11-21T13:02:58;96283.66;;;9.19;100.00
28927;BME280;16038;47.692;9.400;2023-11-21T13:05:32;96287.22;;;9.24;100.00
28927;BME280;16038;47.692;9.400;2023-11-21T13:08:01;96283.41;;;9.02;100.00
28927;BME280;16038;47.692;9.400;2023-11-21T13:10:29;96288.41;;;9.23;100.00
28927;BME280;16038;47.692;9.400;2023-11-21T13:12:59;96291.44;;;9.17;100.00
28927;BME280;16038;47.692;9.400;2023-11-21T13:15:27;96294.19;;;9.17;100.00